Time;durP1;ratioP1;P1;durP2;ratioP2;P2;SDS_P1;SDS_P2;PMS_P1;PMS_P2;Temp;Humidity;BMP_temperature;BMP_pressure;BME280_temperature;BME280_humidity;BME280_pressure;Samples;Min_cycle;Max_cycle;Signal;HPM_P1;HPM_P2
2022/08/21 00:01:45;;;;;;;9.82;4.05;;;;;;;16.47;100.00;101573.38;5053688;28;20045;-64
2022/08/21 00:04:13;;;;;;;8.73;3.78;;;;;;;16.46;100.00;101572.53;5052283;28;20053;-57
2022/08/21 00:06:49;;;;;;;9.48;3.65;;;;;;;16.45;100.00;101576.13;5051204;28;20048;-58
2022/08/21 00:09:20;;;;;;;9.45;3.60;;;;;;;16.37;100.00;101574.09;5051735;28;20041;-65
2022/08/21 00:11:48;;;;;;;10.18;3.83;;;;;;;16.29;100.00;101573.00;5050961;28;20049;-66
2022/08/21 00:14:17;;;;;;;8.45;3.72;;;;;;;16.18;100.00;101566.72;5051316;28;20099;-58
2022/08/21 00:16:45;;;;;;;9.30;4.00;;;;;;;16.08;100.00;101564.91;5049821;28;20385;-64
2022/08/21 00:19:13;;;;;;;8.98;4.15;;;;;;;16.12;100.00;101571.66;5051074;28;20087;-58
2022/08/21 00:21:42;;;;;;;9.82;4.07;;;;;;;16.13;100.00;101565.38;5051038;28;20052;-57
2022/08/21 00:24:11;;;;;;;9.05;4.22;;;;;;;15.99;100.00;101564.66;5050884;28;20055;-64
2022/08/21 00:26:42;;;;;;;9.05;4.20;;;;;;;16.11;100.00;101562.00;5050414;28;20419;-65
2022/08/21 00:29:11;;;;;;;11.48;4.18;;;;;;;16.18;100.00;101563.22;5050813;28;20052;-65
2022/08/21 00:31:39;;;;;;;7.35;4.05;;;;;;;16.05;100.00;101560.69;5049157;28;20441;-55
2022/08/21 00:34:07;;;;;;;8.57;4.05;;;;;;;16.09;100.00;101569.22;5051105;28;20045;-58
2022/08/21 00:36:36;;;;;;;13.77;4.05;;;;;;;16.00;100.00;101566.31;5050708;28;20055;-57
2022/08/21 00:39:06;;;;;;;11.60;4.60;;;;;;;15.99;100.00;101572.63;5049795;28;20503;-57
2022/08/21 00:41:36;;;;;;;9.70;4.25;;;;;;;15.99;100.00;101564.66;5050356;28;20068;-55
2022/08/21 00:44:11;;;;;;;8.23;4.20;;;;;;;15.98;100.00;101556.78;5051088;28;20057;-63
2022/08/21 00:46:39;;;;;;;8.65;4.70;;;;;;;15.93;100.00;101562.47;5050825;28;20060;-56
2022/08/21 00:49:09;;;;;;;8.55;4.70;;;;;;;15.94;100.00;101558.84;5051091;28;20427;-57
2022/08/21 00:51:40;;;;;;;7.57;4.15;;;;;;;15.88;100.00;101567.25;5051188;28;20061;-58
2022/08/21 00:54:10;;;;;;;9.60;4.88;;;;;;;15.78;100.00;101568.91;5050247;28;20411;-57
2022/08/21 00:56:48;;;;;;;10.10;4.50;;;;;;;15.84;100.00;101569.31;5051435;28;20063;-57
2022/08/21 00:59:21;;;;;;;8.13;4.70;;;;;;;15.82;100.00;101565.94;5052400;28;20083;-64
2022/08/21 01:01:51;;;;;;;8.40;4.80;;;;;;;15.83;100.00;101561.50;5051844;28;20056;-64
2022/08/21 01:04:21;;;;;;;7.68;4.60;;;;;;;15.88;100.00;101554.88;5049858;28;20045;-57
2022/08/21 01:06:51;;;;;;;8.35;5.28;;;;;;;15.78;100.00;101551.19;5051041;28;20052;-64
2022/08/21 01:09:19;;;;;;;8.77;5.07;;;;;;;15.74;100.00;101551.53;5052395;28;20048;-64
2022/08/21 01:11:47;;;;;;;9.07;4.72;;;;;;;15.76;100.00;101552.25;5049952;28;20041;-57
2022/08/21 01:14:17;;;;;;;10.73;5.07;;;;;;;15.68;100.00;101558.16;5050674;28;20048;-64
2022/08/21 01:16:49;;;;;;;10.48;4.40;;;;;;;15.74;100.00;101555.03;5051436;28;20147;-55
2022/08/21 01:19:19;;;;;;;9.45;4.47;;;;;;;15.66;100.00;101552.94;5049670;28;20045;-64
2022/08/21 01:21:49;;;;;;;8.65;4.45;;;;;;;15.61;100.00;101559.56;5051508;28;20381;-64
2022/08/21 01:24:17;;;;;;;10.18;4.63;;;;;;;15.51;100.00;101562.06;5052085;28;20128;-57
2022/08/21 01:26:45;;;;;;;8.88;4.38;;;;;;;15.51;100.00;101554.94;5051110;28;20053;-63
2022/08/21 01:29:17;;;;;;;11.88;5.15;;;;;;;15.53;100.00;101566.28;5051093;28;20055;-57
2022/08/21 01:31:45;;;;;;;9.55;4.65;;;;;;;15.64;100.00;101569.97;5050673;28;20055;-57
2022/08/21 01:34:15;;;;;;;9.27;4.68;;;;;;;15.56;100.00;101565.22;5049940;28;20186;-64
2022/08/21 01:36:44;;;;;;;11.38;4.88;;;;;;;15.52;100.00;101559.28;5051045;28;20456;-57
2022/08/21 01:39:14;;;;;;;8.70;4.68;;;;;;;15.53;100.00;101565.47;5051747;28;20630;-57
2022/08/21 01:41:43;;;;;;;11.30;4.65;;;;;;;15.37;100.00;101561.28;5048682;28;20460;-63
2022/08/21 01:44:11;;;;;;;10.30;5.07;;;;;;;15.32;100.00;101562.59;5050685;28;20450;-63
2022/08/21 01:46:40;;;;;;;8.65;4.43;;;;;;;15.35;100.00;101567.66;5052233;28;20048;-64
2022/08/21 01:49:08;;;;;;;8.38;4.43;;;;;;;15.34;100.00;101556.22;5051339;28;20068;-57
2022/08/21 01:51:36;;;;;;;7.85;4.63;;;;;;;15.33;100.00;101559.81;5050320;28;20053;-64
2022/08/21 01:54:04;;;;;;;8.68;4.75;;;;;;;15.36;100.00;101558.75;5050782;28;20041;-64
2022/08/21 01:56:38;;;;;;;9.30;4.63;;;;;;;15.30;100.00;101560.06;5052026;28;20098;-63
2022/08/21 01:59:06;;;;;;;10.63;5.05;;;;;;;15.32;100.00;101558.13;5049292;28;20053;-56
2022/08/21 02:01:35;;;;;;;10.32;4.97;;;;;;;15.34;100.00;101558.88;5047035;28;20045;-63
2022/08/21 02:04:03;;;;;;;10.40;4.88;;;;;;;15.23;100.00;101556.19;5052748;28;20045;-56
2022/08/21 02:06:31;;;;;;;8.93;4.55;;;;;;;15.19;100.00;101552.06;5053849;28;20535;-64
2022/08/21 02:09:00;;;;;;;9.85;4.97;;;;;;;15.18;100.00;101553.00;5053448;28;20071;-64
2022/08/21 02:11:27;;;;;;;10.45;5.07;;;;;;;15.16;100.00;101546.97;5053232;28;20459;-64
2022/08/21 02:13:57;;;;;;;8.73;4.95;;;;;;;15.06;100.00;101545.97;5055491;28;20106;-57
2022/08/21 02:16:26;;;;;;;9.95;4.63;;;;;;;15.02;100.00;101548.84;5056078;28;20083;-64
2022/08/21 02:18:54;;;;;;;7.95;4.50;;;;;;;14.96;100.00;101541.34;5056099;28;20053;-63
2022/08/21 02:21:22;;;;;;;7.47;4.30;;;;;;;14.93;100.00;101546.84;5055154;28;20079;-63
2022/08/21 02:23:50;;;;;;;7.97;4.00;;;;;;;14.90;100.00;101541.75;5053274;28;20037;-63
2022/08/21 02:26:18;;;;;;;8.90;4.55;;;;;;;14.98;100.00;101538.56;5054400;28;20446;-64
2022/08/21 02:28:47;;;;;;;9.50;4.45;;;;;;;15.00;100.00;101534.84;5052176;28;20147;-54
2022/08/21 02:31:16;;;;;;;7.85;4.75;;;;;;;14.96;100.00;101530.75;5050558;28;20458;-57
2022/08/21 02:33:44;;;;;;;6.95;3.97;;;;;;;15.00;100.00;101534.84;5053114;28;20052;-56
2022/08/21 02:36:13;;;;;;;8.15;4.18;;;;;;;14.90;100.00;101531.16;5052615;28;20451;-57
2022/08/21 02:38:43;;;;;;;10.18;4.95;;;;;;;14.87;100.00;101532.25;5052559;28;20552;-55
2022/08/21 02:41:15;;;;;;;9.25;4.25;;;;;;;14.88;100.00;101527.81;5052760;28;20048;-58
2022/08/21 02:43:43;;;;;;;9.70;4.35;;;;;;;14.77;100.00;101528.56;5052528;28;20045;-55
2022/08/21 02:46:14;;;;;;;8.88;4.63;;;;;;;14.83;100.00;101522.00;5052317;28;20132;-56
2022/08/21 02:48:46;;;;;;;10.73;4.68;;;;;;;14.87;100.00;101529.63;5055454;28;20492;-55
2022/08/21 02:51:17;;;;;;;10.45;4.70;;;;;;;14.84;100.00;101524.53;5054335;28;20118;-57
2022/08/21 02:53:45;;;;;;;9.85;4.45;;;;;;;14.83;100.00;101519.34;5053216;28;20045;-63
2022/08/21 02:56:17;;;;;;;8.70;4.13;;;;;;;14.85;100.00;101520.09;5052915;28;20416;-57
2022/08/21 02:58:49;;;;;;;9.65;4.28;;;;;;;14.73;100.00;101527.09;5053574;28;20052;-64
2022/08/21 03:01:17;;;;;;;7.63;3.92;;;;;;;14.75;100.00;101529.63;5055314;28;20049;-63
2022/08/21 03:03:49;;;;;;;9.20;4.30;;;;;;;14.66;100.00;101529.34;5055157;28;20041;-56
2022/08/21 03:06:19;;;;;;;6.53;3.85;;;;;;;14.70;100.00;101520.22;5055229;28;20048;-64
2022/08/21 03:08:47;;;;;;;7.70;3.75;;;;;;;14.69;100.00;101513.25;5052344;28;20063;-63
2022/08/21 03:11:16;;;;;;;7.45;3.80;;;;;;;14.62;100.00;101524.38;5052274;28;20084;-54
2022/08/21 03:13:44;;;;;;;8.05;4.30;;;;;;;14.61;100.00;101526.16;5052547;28;20045;-63
2022/08/21 03:16:12;;;;;;;6.82;3.83;;;;;;;14.50;100.00;101518.97;5051557;28;20455;-58
2022/08/21 03:18:41;;;;;;;7.05;3.60;;;;;;;14.61;100.00;101520.84;5054739;28;20256;-55
2022/08/21 03:21:10;;;;;;;7.95;3.60;;;;;;;14.57;100.00;101513.25;5051904;28;20080;-64
2022/08/21 03:23:39;;;;;;;10.55;4.03;;;;;;;14.65;100.00;101510.94;5052512;28;20514;-57
2022/08/21 03:26:08;;;;;;;6.22;3.38;;;;;;;14.60;100.00;101510.38;5054786;28;20041;-57
2022/08/21 03:28:37;;;;;;;7.45;3.92;;;;;;;14.51;100.00;101520.66;5053383;28;20052;-58
2022/08/21 03:31:06;;;;;;;7.07;3.83;;;;;;;14.58;100.00;101512.31;5051164;28;20094;-55
2022/08/21 03:33:34;;;;;;;9.13;3.72;;;;;;;14.48;100.00;101504.16;5051992;28;20060;-63
2022/08/21 03:36:06;;;;;;;6.50;3.70;;;;;;;14.48;100.00;101509.44;5051943;28;20140;-56
2022/08/21 03:38:37;;;;;;;6.67;3.60;;;;;;;14.44;100.00;101507.97;5052090;28;20041;-56
2022/08/21 03:41:06;;;;;;;8.48;3.65;;;;;;;14.42;100.00;101515.19;5051921;28;20049;-64
2022/08/21 03:43:36;;;;;;;7.43;3.60;;;;;;;14.41;100.00;101513.50;5051955;28;20041;-57
2022/08/21 03:46:05;;;;;;;6.80;3.35;;;;;;;14.44;100.00;101515.91;5051064;28;20120;-62
2022/08/21 03:48:35;;;;;;;9.88;3.58;;;;;;;14.34;100.00;101510.44;5052200;28;20037;-63
2022/08/21 03:51:04;;;;;;;6.95;3.08;;;;;;;14.30;100.00;101511.59;5054470;28;20104;-57
2022/08/21 03:53:32;;;;;;;7.70;3.50;;;;;;;14.36;100.00;101513.81;5052506;28;20128;-57
2022/08/21 03:56:03;;;;;;;8.68;4.00;;;;;;;14.30;100.00;101514.25;5050841;28;20037;-64
2022/08/21 03:58:31;;;;;;;8.18;3.70;;;;;;;14.21;100.00;101510.47;5050907;28;20508;-55
2022/08/21 04:01:01;;;;;;;7.95;3.83;;;;;;;14.25;100.00;101513.72;5053006;28;20500;-56
2022/08/21 04:03:29;;;;;;;8.02;4.43;;;;;;;14.21;100.00;101510.47;5049934;28;20136;-56
2022/08/21 04:05:58;;;;;;;10.15;4.28;;;;;;;14.14;100.00;101517.97;5051770;28;20055;-56
2022/08/21 04:08:26;;;;;;;7.43;3.80;;;;;;;14.20;100.00;101511.41;5051620;28;20470;-55
2022/08/21 04:10:57;;;;;;;7.18;4.10;;;;;;;14.12;100.00;101513.75;5051440;28;20488;-55
2022/08/21 04:13:27;;;;;;;8.75;4.15;;;;;;;14.12;100.00;101513.75;5051677;28;20123;-62
2022/08/21 04:15:57;;;;;;;6.20;3.80;;;;;;;14.11;100.00;101514.69;5049648;28;20499;-63
2022/08/21 04:18:26;;;;;;;9.23;3.97;;;;;;;14.07;100.00;101515.84;5051212;28;20132;-57
2022/08/21 04:20:56;;;;;;;9.13;4.03;;;;;;;14.12;100.00;101505.81;5051314;28;20535;-62
2022/08/21 04:23:25;;;;;;;6.30;3.67;;;;;;;14.09;100.00;101509.50;5052990;28;20076;-63
2022/08/21 04:25:56;;;;;;;8.60;3.80;;;;;;;13.97;100.00;101505.91;5050702;28;20067;-63
2022/08/21 04:28:25;;;;;;;7.38;3.83;;;;;;;14.04;100.00;101501.03;5050767;28;20068;-58
2022/08/21 04:30:57;;;;;;;8.95;4.45;;;;;;;14.10;100.00;101510.38;5049779;28;20123;-55
2022/08/21 04:33:26;;;;;;;8.23;4.00;;;;;;;14.00;100.00;101505.72;5052836;28;20492;-62
2022/08/21 04:35:54;;;;;;;9.63;5.10;;;;;;;14.03;100.00;101513.44;5050907;28;20056;-58
2022/08/21 04:38:22;;;;;;;10.25;5.75;;;;;;;14.00;100.00;101503.06;5051020;28;20069;-57
2022/08/21 04:40:52;;;;;;;10.35;6.50;;;;;;;13.96;100.00;101503.38;5052329;28;20072;-62
2022/08/21 04:43:21;;;;;;;9.10;5.85;;;;;;;13.84;100.00;101499.78;5051159;28;20566;-56
2022/08/21 04:45:50;;;;;;;11.95;5.97;;;;;;;13.92;100.00;101502.75;5049227;28;20052;-63
2022/08/21 04:48:23;;;;;;;11.23;5.97;;;;;;;14.03;100.00;101500.19;5050950;28;20047;-56
2022/08/21 04:50:56;;;;;;;11.00;6.05;;;;;;;13.94;100.00;101495.53;5053117;28;20049;-55
2022/08/21 04:53:30;;;;;;;11.82;6.18;;;;;;;13.90;100.00;101499.34;5052419;28;20051;-63
2022/08/21 04:56:04;;;;;;;10.32;5.55;;;;;;;13.92;100.00;101505.41;5050192;28;21099;-56
2022/08/21 04:58:33;;;;;;;11.82;5.85;;;;;;;13.89;100.00;101502.94;5050284;28;20045;-56
2022/08/21 05:01:03;;;;;;;9.35;5.63;;;;;;;13.95;100.00;101507.81;5048920;28;20037;-62
2022/08/21 05:03:35;;;;;;;9.10;5.40;;;;;;;13.93;100.00;101504.41;5049294;28;20102;-55
2022/08/21 05:06:05;;;;;;;8.40;5.63;;;;;;;13.88;100.00;101511.84;5050577;28;20562;-57
2022/08/21 05:08:34;;;;;;;9.85;5.28;;;;;;;13.92;100.00;101513.34;5050446;28;20049;-55
2022/08/21 05:11:03;;;;;;;10.13;5.55;;;;;;;13.89;100.00;101517.97;5049670;28;20049;-62
2022/08/21 05:13:32;;;;;;;11.35;5.63;;;;;;;13.84;100.00;101511.19;5050234;28;20044;-56
2022/08/21 05:16:00;;;;;;;9.52;5.68;;;;;;;13.93;100.00;101507.06;5052224;28;20057;-56
2022/08/21 05:18:28;;;;;;;10.75;5.85;;;;;;;13.89;100.00;101510.88;5050161;28;20049;-57
2022/08/21 05:20:58;;;;;;;9.00;5.00;;;;;;;13.89;100.00;101516.16;5050986;28;20488;-54
2022/08/21 05:23:26;;;;;;;10.15;5.68;;;;;;;14.01;100.00;101520.59;5052634;28;20099;-55
2022/08/21 05:25:54;;;;;;;10.23;4.90;;;;;;;14.01;100.00;101523.25;5050122;28;20061;-54
2022/08/21 05:28:23;;;;;;;12.73;5.15;;;;;;;13.98;100.00;101523.47;5049007;28;20052;-53
2022/08/21 05:30:54;;;;;;;10.45;5.68;;;;;;;14.04;100.00;101535.41;5050542;28;20145;-56
2022/08/21 05:33:22;;;;;;;8.05;5.05;;;;;;;14.15;100.00;101524.97;5049692;28;20069;-56
2022/08/21 05:35:51;;;;;;;9.13;5.47;;;;;;;14.17;100.00;101530.13;5049601;28;20057;-61
2022/08/21 05:38:21;;;;;;;9.52;5.70;;;;;;;14.16;100.00;101531.91;5050064;28;20045;-62
2022/08/21 05:40:49;;;;;;;13.10;5.97;;;;;;;14.19;100.00;101541.44;5049426;28;20106;-63
2022/08/21 05:43:17;;;;;;;11.13;5.78;;;;;;;14.21;100.00;101536.91;5050562;28;20056;-63
2022/08/21 05:45:45;;;;;;;10.25;5.65;;;;;;;14.23;100.00;101542.09;5048937;28;20041;-56
2022/08/21 05:48:16;;;;;;;10.55;6.50;;;;;;;14.22;100.00;101543.91;5051226;28;20492;-63
2022/08/21 05:50:46;;;;;;;11.23;6.18;;;;;;;14.25;100.00;101535.75;5049632;28;20052;-57
2022/08/21 05:53:17;;;;;;;12.15;5.85;;;;;;;14.36;100.00;101538.47;5050547;28;20052;-63
2022/08/21 05:55:48;;;;;;;9.43;5.80;;;;;;;14.43;100.00;101538.06;5049005;28;20041;-57
2022/08/21 05:58:18;;;;;;;11.95;6.32;;;;;;;14.50;100.00;101544.59;5051671;28;20051;-55
2022/08/21 06:00:47;;;;;;;11.15;7.07;;;;;;;14.56;100.00;101549.47;5050858;28;20048;-62
2022/08/21 06:03:18;;;;;;;13.82;7.25;;;;;;;14.64;100.00;101541.00;5052075;28;20049;-56
2022/08/21 06:05:47;;;;;;;13.98;8.18;;;;;;;14.74;100.00;101533.25;5049460;28;20480;-62
2022/08/21 06:08:15;;;;;;;11.90;7.90;;;;;;;14.81;100.00;101531.88;5050501;28;20068;-62
2022/08/21 06:10:44;;;;;;;14.75;8.40;;;;;;;14.93;100.00;101530.09;5052039;28;20041;-63
2022/08/21 06:13:14;;;;;;;13.95;8.68;;;;;;;15.02;100.00;101526.78;5050953;28;20045;-62
2022/08/21 06:15:42;;;;;;;14.18;9.57;;;;;;;15.12;100.00;101525.16;5047599;28;20060;-63
2022/08/21 06:18:11;;;;;;;17.77;10.45;;;;;;;15.24;100.00;101528.69;5049627;28;20049;-63
2022/08/21 06:20:39;;;;;;;18.85;12.10;;;;;;;15.33;100.00;101528.03;5051007;28;20045;-55
2022/08/21 06:23:08;;;;;;;20.25;13.38;;;;;;;15.41;100.00;101524.81;5049610;28;20049;-55
2022/08/21 06:25:36;;;;;;;16.42;12.13;;;;;;;15.55;100.00;101535.19;5050801;28;20099;-55
2022/08/21 06:28:07;;;;;;;16.65;12.90;;;;;;;15.64;100.00;101536.31;5049969;28;20045;-56
2022/08/21 06:30:38;;;;;;;17.33;13.32;;;;;;;15.74;100.00;101532.97;5047472;28;20488;-55
2022/08/21 06:33:07;;;;;;;16.77;11.70;;;;;;;15.84;100.00;101534.84;5049916;28;20060;-63
2022/08/21 06:35:36;;;;;;;15.68;12.05;;;;;;;15.95;100.00;101536.69;5050112;28;20515;-58
2022/08/21 06:38:08;;;;;;;17.80;12.27;;;;;;;16.05;100.00;101536.81;5050719;28;20115;-62
2022/08/21 06:40:37;;;;;;;17.75;11.60;;;;;;;16.17;100.00;101538.50;5048921;28;20087;-63
2022/08/21 06:43:16;;;;;;;16.27;10.68;;;;;;;16.31;100.00;101529.47;5049350;28;20045;-64
2022/08/21 06:45:46;;;;;;;20.10;11.20;;;;;;;16.44;100.00;101536.44;5047234;28;20048;-56
2022/08/21 06:48:14;;;;;;;18.13;9.60;;;;;;;16.56;100.00;101535.47;5049316;28;20095;-63
2022/08/21 06:50:47;;;;;;;15.23;9.47;;;;;;;16.71;100.00;101534.25;5051226;28;20052;-57
2022/08/21 06:53:18;;;;;;;16.63;10.23;;;;;;;16.92;100.00;101540.63;5053167;28;20458;-65
2022/08/21 06:55:47;;;;;;;14.25;8.90;;;;;;;17.01;100.00;101537.22;5052149;28;20059;-64
2022/08/21 06:58:16;;;;;;;14.18;8.38;;;;;;;17.14;100.00;101535.25;5055281;28;20550;-57
2022/08/21 07:00:47;;;;;;;18.25;9.80;;;;;;;17.29;100.00;101530.50;5055164;28;20044;-65
2022/08/21 07:03:20;;;;;;;15.85;8.75;;;;;;;17.46;100.00;101536.22;5053969;28;20659;-57
2022/08/21 07:05:49;;;;;;;18.90;8.65;;;;;;;17.56;100.00;101535.31;5052424;28;20041;-65
2022/08/21 07:08:17;;;;;;;14.50;7.82;;;;;;;17.69;100.00;101540.44;5054821;28;20065;-56
2022/08/21 07:10:46;;;;;;;15.20;7.13;;;;;;;17.82;100.00;101537.59;5053813;28;20064;-56
2022/08/21 07:13:14;;;;;;;14.38;7.90;;;;;;;17.98;100.00;101536.31;5054391;28;20828;-57
2022/08/21 07:15:42;;;;;;;20.10;8.70;;;;;;;18.10;100.00;101534.41;5050521;28;20496;-57
2022/08/21 07:18:12;;;;;;;16.85;7.95;;;;;;;18.23;100.00;101529.72;5052741;28;20052;-57
2022/08/21 07:20:42;;;;;;;16.90;7.97;;;;;;;18.35;100.00;101530.44;5052014;28;20048;-68
2022/08/21 07:23:17;;;;;;;17.92;7.43;;;;;;;18.51;100.00;101532.63;5052877;28;20033;-58
2022/08/21 07:25:45;;;;;;;13.13;7.13;;;;;;;18.64;99.36;101529.69;5052500;28;20529;-57
2022/08/21 07:28:13;;;;;;;14.10;7.50;;;;;;;18.84;99.76;101527.94;5053501;28;20450;-66
2022/08/21 07:30:41;;;;;;;13.70;6.95;;;;;;;19.01;97.75;101526.47;5050802;28;20044;-58
2022/08/21 07:33:09;;;;;;;12.73;5.97;;;;;;;19.15;96.29;101525.19;5054457;28;20049;-58
2022/08/21 07:35:39;;;;;;;17.75;6.93;;;;;;;19.35;95.59;101528.72;5051989;28;20745;-68
2022/08/21 07:38:08;;;;;;;16.75;7.13;;;;;;;19.50;94.86;101524.63;5052773;28;20044;-58
2022/08/21 07:40:36;;;;;;;17.20;7.05;;;;;;;19.70;93.32;101524.59;5054064;28;20041;-67
2022/08/21 07:43:04;;;;;;;15.38;6.60;;;;;;;19.80;91.77;101524.59;5052778;28;20044;-68
2022/08/21 07:45:33;;;;;;;15.77;7.00;;;;;;;19.94;92.01;101518.81;5050313;28;20086;-66
2022/08/21 07:48:01;;;;;;;16.40;6.10;;;;;;;20.20;90.86;101518.97;5054135;28;20396;-65
2022/08/21 07:50:29;;;;;;;16.20;6.55;;;;;;;20.20;89.54;101520.81;5052577;28;20119;-58
2022/08/21 07:52:58;;;;;;;18.35;6.72;;;;;;;20.40;87.98;101511.72;5052788;28;20045;-65
2022/08/21 07:55:27;;;;;;;13.77;6.18;;;;;;;20.55;88.09;101514.75;5054278;28;20048;-58
2022/08/21 07:57:55;;;;;;;14.20;6.57;;;;;;;20.80;86.21;101519.56;5054239;28;20045;-66
2022/08/21 08:00:25;;;;;;;13.30;5.85;;;;;;;20.89;86.56;101514.16;5050096;28;20049;-58
2022/08/21 08:02:54;;;;;;;18.20;7.25;;;;;;;20.84;85.52;101518.28;5051551;28;20041;-57
2022/08/21 08:05:24;;;;;;;15.40;6.43;;;;;;;20.75;86.05;101520.00;5054178;28;20045;-65
2022/08/21 08:07:53;;;;;;;15.85;6.80;;;;;;;20.73;86.10;101520.16;5052554;28;20053;-59
2022/08/21 08:10:24;;;;;;;17.80;6.60;;;;;;;20.84;87.18;101513.75;5049917;28;20393;-65
2022/08/21 08:12:54;;;;;;;17.50;6.82;;;;;;;20.88;86.13;101511.63;5051388;28;20056;-65
2022/08/21 08:15:26;;;;;;;13.75;6.55;;;;;;;21.04;86.65;101516.31;5049907;28;20045;-58
2022/08/21 08:17:54;;;;;;;14.88;6.28;;;;;;;21.21;85.86;101522.63;5051116;28;20037;-57
2022/08/21 08:20:24;;;;;;;15.02;6.90;;;;;;;21.33;85.22;101523.25;5052080;28;20131;-65
2022/08/21 08:22:53;;;;;;;12.05;6.55;;;;;;;21.44;86.28;101518.47;5053207;28;20086;-57
2022/08/21 08:25:24;;;;;;;16.80;6.22;;;;;;;21.57;84.17;101520.78;5050979;28;20132;-58
2022/08/21 08:27:53;;;;;;;13.32;6.18;;;;;;;21.76;84.79;101514.38;5051175;28;20049;-66
2022/08/21 08:30:23;;;;;;;18.00;6.22;;;;;;;21.95;82.71;101517.84;5049588;28;20729;-66
2022/08/21 08:32:52;;;;;;;15.85;6.90;;;;;;;22.08;81.04;101512.06;5052467;28;20092;-57
2022/08/21 08:35:20;;;;;;;14.45;6.43;;;;;;;22.17;81.70;101508.44;5049943;28;20053;-66
2022/08/21 08:37:51;;;;;;;13.65;5.88;;;;;;;22.45;80.79;101502.88;5051031;28;20128;-57
2022/08/21 08:40:30;;;;;;;16.25;5.90;;;;;;;22.68;80.43;101503.09;5050555;28;20408;-58
2022/08/21 08:42:58;;;;;;;12.05;5.78;;;;;;;22.88;78.71;101498.28;5052181;28;20060;-57
2022/08/21 08:45:27;;;;;;;13.88;5.63;;;;;;;23.03;78.35;101493.09;5049130;28;20040;-58
2022/08/21 08:48:03;;;;;;;13.82;4.88;;;;;;;23.23;77.54;101500.84;5050849;28;20128;-58
2022/08/21 08:50:41;;;;;;;15.05;5.30;;;;;;;23.46;75.88;101493.81;5051113;28;20400;-58
2022/08/21 08:53:16;;;;;;;13.02;5.05;;;;;;;23.34;75.29;101497.84;5051014;28;20064;-59
2022/08/21 08:55:46;;;;;;;15.15;4.28;;;;;;;23.57;74.49;101491.78;5050142;28;20037;-58
2022/08/21 08:58:19;;;;;;;11.13;3.30;;;;;;;23.91;73.79;101485.34;5050992;28;20068;-60
2022/08/21 09:00:51;;;;;;;18.15;4.18;;;;;;;24.19;72.21;101491.13;5048808;28;20052;-65
2022/08/21 09:03:19;;;;;;;10.70;3.58;;;;;;;24.39;70.69;101488.88;5051708;28;20146;-57
2022/08/21 09:05:51;;;;;;;14.75;4.38;;;;;;;24.55;68.65;101487.09;5050890;28;20419;-57
2022/08/21 09:08:40;;;;;;;11.53;4.27;;;;;;;24.66;70.20;101489.41;5051520;28;20047;-58
2022/08/21 09:11:16;;;;;;;11.80;4.30;;;;;;;24.54;67.72;101485.41;5049587;28;20041;-57
2022/08/21 09:13:57;;;;;;;12.23;4.18;;;;;;;24.79;67.16;101489.66;5048831;28;20045;-66
2022/08/21 09:16:36;;;;;;;11.48;3.75;;;;;;;25.16;65.65;101487.19;5047498;28;20051;-67
2022/08/21 09:19:12;;;;;;;10.95;3.47;;;;;;;25.36;65.67;101478.63;5050316;28;20055;-58
2022/08/21 09:21:51;;;;;;;13.32;3.80;;;;;;;25.61;64.92;101471.16;5052126;28;20103;-68
2022/08/21 09:24:31;;;;;;;12.23;3.20;;;;;;;25.94;64.56;101484.25;5052859;28;20044;-67
2022/08/21 09:27:08;;;;;;;11.32;3.25;;;;;;;26.02;61.52;101473.41;5050165;28;20071;-68
2022/08/21 09:29:39;;;;;;;12.20;3.17;;;;;;;26.20;60.67;101474.88;5047978;28;20041;-58
2022/08/21 09:32:16;;;;;;;11.18;2.95;;;;;;;26.28;61.49;101472.91;5052494;28;20480;-57
2022/08/21 09:34:57;;;;;;;10.55;2.70;;;;;;;26.39;59.33;101465.38;5052776;28;20056;-67
2022/08/21 09:37:25;;;;;;;10.85;3.40;;;;;;;26.25;58.35;101462.50;5052508;28;20577;-58
2022/08/21 09:39:53;;;;;;;11.57;2.90;;;;;;;26.41;58.95;101468.69;5050172;28;20132;-66
2022/08/21 09:42:27;;;;;;;14.80;3.70;;;;;;;26.38;57.80;101469.09;5050334;28;20072;-66
2022/08/21 09:45:14;;;;;;;11.55;3.38;;;;;;;26.44;58.64;101469.16;5048419;28;20049;-64
2022/08/21 09:47:43;;;;;;;13.00;2.83;;;;;;;26.57;58.28;101468.47;5030101;28;20029;-57
2022/08/21 09:50:15;;;;;;;9.90;2.50;;;;;;;26.75;55.26;101475.31;5030253;28;20042;-65
2022/08/21 09:52:49;;;;;;;11.00;2.55;;;;;;;26.87;54.27;101475.66;5029881;28;20057;-58
2022/08/21 09:58:20;;;;;;;9.85;2.70;;;;;;;26.99;54.75;101471.41;5031101;28;20069;-66
2022/08/21 10:00:59;;;;;;;10.45;2.53;;;;;;;26.94;55.17;101472.00;5032274;28;20049;-66
2022/08/21 10:03:27;;;;;;;11.57;2.78;;;;;;;27.44;52.69;101480.09;5032192;28;20076;-57
2022/08/21 10:05:59;;;;;;;9.55;2.22;;;;;;;27.27;52.42;101473.31;5032342;28;20497;-65
2022/08/21 10:08:29;;;;;;;7.40;2.28;;;;;;;27.21;52.39;101474.06;5032538;28;20041;-65
2022/08/21 10:11:05;;;;;;;10.98;2.33;;;;;;;27.54;52.12;101473.50;5035760;28;20049;-58
2022/08/21 10:13:46;;;;;;;7.32;2.30;;;;;;;27.72;51.58;101476.56;5049745;28;20056;-66
2022/08/21 10:16:26;;;;;;;8.52;2.17;;;;;;;27.73;51.40;101474.66;5048190;28;20052;-66
2022/08/21 10:19:09;;;;;;;7.72;1.73;;;;;;;27.89;50.42;101476.22;5049140;28;20055;-58
2022/08/21 10:21:46;;;;;;;10.00;2.35;;;;;;;28.01;49.37;101471.94;5048910;28;20053;-66
2022/08/21 10:24:24;;;;;;;9.30;2.03;;;;;;;28.11;50.32;101471.56;5049969;28;20059;-66
2022/08/21 10:27:12;;;;;;;5.90;1.70;;;;;;;27.72;47.92;101473.84;5053679;28;20090;-59
2022/08/21 10:29:49;;;;;;;10.35;2.33;;;;;;;27.88;47.86;101471.84;5056203;28;20052;-58
2022/08/21 10:32:35;;;;;;;8.88;2.13;;;;;;;27.62;48.92;101470.66;5055955;28;20380;-58
2022/08/21 10:35:11;;;;;;;8.85;2.00;;;;;;;27.81;48.15;101461.84;5051316;28;20061;-58
2022/08/21 10:37:52;;;;;;;8.48;2.38;;;;;;;27.72;47.16;101470.28;5053657;28;20049;-65
2022/08/21 10:40:26;;;;;;;7.50;2.00;;;;;;;28.21;48.05;101461.22;5053251;28;20060;-66
2022/08/21 10:43:17;;;;;;;7.88;2.03;;;;;;;28.04;47.41;101454.50;5054938;28;20102;-58
2022/08/21 10:45:56;;;;;;;7.75;2.20;;;;;;;28.34;48.04;101455.00;5054947;28;20114;-58
2022/08/21 10:48:30;;;;;;;7.65;1.77;;;;;;;28.75;47.65;101455.97;5053054;28;20048;-58
2022/08/21 10:51:07;;;;;;;7.55;1.60;;;;;;;28.37;43.85;101451.06;5052880;28;20053;-58
2022/08/21 10:53:48;;;;;;;9.18;1.85;;;;;;;28.09;45.74;101462.84;5053624;28;20443;-64
2022/08/21 10:56:20;;;;;;;9.60;1.70;;;;;;;28.19;44.35;101470.56;5054480;28;20051;-58
2022/08/21 10:59:08;;;;;;;5.55;1.50;;;;;;;27.88;44.29;101466.44;5052837;28;20124;-65
2022/08/21 11:01:45;;;;;;;9.55;2.25;;;;;;;27.83;45.75;101470.56;5048923;28;20060;-56
2022/08/21 11:04:21;;;;;;;8.88;2.20;;;;;;;27.66;46.65;101470.06;5052821;28;20049;-65
2022/08/21 11:06:55;;;;;;;6.53;1.90;;;;;;;27.83;46.99;101475.16;5053205;28;20045;-64
2022/08/21 11:09:26;;;;;;;7.28;1.65;;;;;;;28.14;46.95;101468.44;5052426;28;20045;-65
2022/08/21 11:12:01;;;;;;;7.10;1.90;;;;;;;27.89;44.00;101462.72;5050566;28;20577;-67
2022/08/21 11:14:47;;;;;;;8.15;1.80;;;;;;;28.53;44.07;101460.69;5050915;28;20064;-59
2022/08/21 11:17:24;;;;;;;7.57;1.80;;;;;;;28.95;44.68;101464.09;5052755;28;20051;-57
2022/08/21 11:19:58;;;;;;;7.90;1.80;;;;;;;29.22;43.94;101453.25;5053426;28;20056;-66
2022/08/21 11:22:41;;;;;;;8.20;1.67;;;;;;;29.51;43.61;101455.53;5054424;28;20408;-65
2022/08/21 11:25:15;;;;;;;5.93;1.90;;;;;;;29.17;42.54;101462.84;5053681;28;20143;-65
2022/08/21 11:27:49;;;;;;;9.02;1.60;;;;;;;29.20;42.17;101453.47;5051749;28;20049;-64
2022/08/21 11:30:18;;;;;;;7.32;1.70;;;;;;;28.89;42.58;101445.97;5050649;28;20518;-62
2022/08/21 11:33:02;;;;;;;7.80;1.90;;;;;;;29.36;42.80;101449.53;5052042;28;20128;-64
2022/08/21 11:35:39;;;;;;;6.95;1.67;;;;;;;29.64;42.06;101445.72;5051666;28;20343;-56